sensor_id;sensor_type;location;lat;lon;timestamp;P1;durP1;ratioP1;P2;durP2;ratioP2
50281;SDS011;36176;51.506;10.272;2022-08-24T00:00:24;4.33;;;3.40;;
50281;SDS011;36176;51.506;10.272;2022-08-24T00:02:53;4.87;;;2.10;;
50281;SDS011;36176;51.506;10.272;2022-08-24T00:05:26;2.30;;;2.10;;
50281;SDS011;36176;51.506;10.272;2022-08-24T00:08:09;3.77;;;3.07;;
50281;SDS011;36176;51.506;10.272;2022-08-24T00:10:40;4.33;;;3.63;;
50281;SDS011;36176;51.506;10.272;2022-08-24T00:13:12;2.73;;;2.37;;
50281;SDS011;36176;51.506;10.272;2022-08-24T00:15:48;2.83;;;2.40;;
50281;SDS011;36176;51.506;10.272;2022-08-24T00:18:19;3.53;;;2.73;;
50281;SDS011;36176;51.506;10.272;2022-08-24T00:20:46;5.30;;;2.27;;
50281;SDS011;36176;51.506;10.272;2022-08-24T00:23:17;5.57;;;5.10;;
50281;SDS011;36176;51.506;10.272;2022-08-24T00:25:53;2.73;;;2.30;;
50281;SDS011;36176;51.506;10.272;2022-08-24T00:28:28;5.30;;;3.17;;
50281;SDS011;36176;51.506;10.272;2022-08-24T00:31:02;3.10;;;2.30;;
50281;SDS011;36176;51.506;10.272;2022-08-24T00:33:34;3.03;;;2.20;;
50281;SDS011;36176;51.506;10.272;2022-08-24T00:36:07;3.87;;;3.27;;
50281;SDS011;36176;51.506;10.272;2022-08-24T00:38:35;3.80;;;3.50;;
50281;SDS011;36176;51.506;10.272;2022-08-24T00:41:03;3.00;;;2.30;;
50281;SDS011;36176;51.506;10.272;2022-08-24T00:43:39;3.50;;;2.80;;
50281;SDS011;36176;51.506;10.272;2022-08-24T00:46:26;4.80;;;3.20;;
50281;SDS011;36176;51.506;10.272;2022-08-24T00:49:07;5.37;;;3.33;;
50281;SDS011;36176;51.506;10.272;2022-08-24T00:51:39;2.80;;;2.60;;
50281;SDS011;36176;51.506;10.272;2022-08-24T00:54:17;4.23;;;2.63;;
50281;SDS011;36176;51.506;10.272;2022-08-24T00:56:48;3.60;;;2.93;;
50281;SDS011;36176;51.506;10.272;2022-08-24T00:59:21;3.83;;;3.53;;
50281;SDS011;36176;51.506;10.272;2022-08-24T01:02:18;2.90;;;2.70;;
50281;SDS011;36176;51.506;10.272;2022-08-24T01:05:04;3.70;;;2.73;;
50281;SDS011;36176;51.506;10.272;2022-08-24T01:19:53;3.50;;;3.00;;
50281;SDS011;36176;51.506;10.272;2022-08-24T01:25:45;4.03;;;2.33;;
50281;SDS011;36176;51.506;10.272;2022-08-24T01:28:22;4.13;;;3.57;;
50281;SDS011;36176;51.506;10.272;2022-08-24T01:30:53;5.17;;;4.70;;
50281;SDS011;36176;51.506;10.272;2022-08-24T01:33:28;3.90;;;3.60;;
50281;SDS011;36176;51.506;10.272;2022-08-24T01:39:41;4.07;;;3.73;;
50281;SDS011;36176;51.506;10.272;2022-08-24T01:42:17;5.40;;;4.97;;
50281;SDS011;36176;51.506;10.272;2022-08-24T01:44:45;3.47;;;3.23;;
50281;SDS011;36176;51.506;10.272;2022-08-24T01:47:15;7.00;;;6.40;;
50281;SDS011;36176;51.506;10.272;2022-08-24T01:49:44;3.67;;;3.37;;
50281;SDS011;36176;51.506;10.272;2022-08-24T01:52:19;3.07;;;2.77;;
50281;SDS011;36176;51.506;10.272;2022-08-24T01:55:17;4.57;;;4.20;;
50281;SDS011;36176;51.506;10.272;2022-08-24T01:58:01;5.80;;;5.30;;
50281;SDS011;36176;51.506;10.272;2022-08-24T02:00:35;6.43;;;5.93;;
50281;SDS011;36176;51.506;10.272;2022-08-24T02:03:13;3.83;;;3.53;;
50281;SDS011;36176;51.506;10.272;2022-08-24T02:05:42;5.13;;;4.73;;
50281;SDS011;36176;51.506;10.272;2022-08-24T02:11:21;11.40;;;10.63;;
50281;SDS011;36176;51.506;10.272;2022-08-24T02:13:49;5.13;;;4.70;;
50281;SDS011;36176;51.506;10.272;2022-08-24T02:16:20;6.20;;;5.77;;
50281;SDS011;36176;51.506;10.272;2022-08-24T02:19:00;5.37;;;4.97;;
50281;SDS011;36176;51.506;10.272;2022-08-24T02:21:30;9.87;;;8.97;;
50281;SDS011;36176;51.506;10.272;2022-08-24T02:24:02;4.07;;;3.77;;
50281;SDS011;36176;51.506;10.272;2022-08-24T02:26:31;4.13;;;3.33;;
50281;SDS011;36176;51.506;10.272;2022-08-24T02:29:12;4.60;;;4.27;;
50281;SDS011;36176;51.506;10.272;2022-08-24T02:31:41;7.20;;;6.70;;
50281;SDS011;36176;51.506;10.272;2022-08-24T02:34:09;8.23;;;7.63;;
50281;SDS011;36176;51.506;10.272;2022-08-24T02:36:37;4.20;;;3.90;;
50281;SDS011;36176;51.506;10.272;2022-08-24T02:39:06;8.73;;;7.90;;
50281;SDS011;36176;51.506;10.272;2022-08-24T02:41:35;7.37;;;6.77;;
50281;SDS011;36176;51.506;10.272;2022-08-24T02:44:04;7.63;;;7.03;;
50281;SDS011;36176;51.506;10.272;2022-08-24T02:46:34;7.10;;;6.63;;
50281;SDS011;36176;51.506;10.272;2022-08-24T02:49:03;9.17;;;8.47;;
50281;SDS011;36176;51.506;10.272;2022-08-24T02:51:38;11.50;;;10.80;;
50281;SDS011;36176;51.506;10.272;2022-08-24T02:54:11;9.17;;;8.37;;
50281;SDS011;36176;51.506;10.272;2022-08-24T02:56:46;10.47;;;9.63;;
50281;SDS011;36176;51.506;10.272;2022-08-24T02:59:25;10.40;;;9.70;;
50281;SDS011;36176;51.506;10.272;2022-08-24T03:01:53;13.03;;;12.20;;
50281;SDS011;36176;51.506;10.272;2022-08-24T03:04:20;9.13;;;8.53;;
50281;SDS011;36176;51.506;10.272;2022-08-24T03:06:48;14.60;;;13.60;;
50281;SDS011;36176;51.506;10.272;2022-08-24T03:09:16;9.20;;;8.70;;
50281;SDS011;36176;51.506;10.272;2022-08-24T03:11:45;11.97;;;11.17;;
50281;SDS011;36176;51.506;10.272;2022-08-24T03:14:32;8.60;;;7.80;;
50281;SDS011;36176;51.506;10.272;2022-08-24T03:17:01;8.10;;;7.50;;
50281;SDS011;36176;51.506;10.272;2022-08-24T03:19:29;9.10;;;8.43;;
50281;SDS011;36176;51.506;10.272;2022-08-24T03:21:57;16.47;;;15.37;;
50281;SDS011;36176;51.506;10.272;2022-08-24T03:24:25;7.83;;;7.33;;
50281;SDS011;36176;51.506;10.272;2022-08-24T03:26:55;8.43;;;7.87;;
50281;SDS011;36176;51.506;10.272;2022-08-24T03:29:25;6.73;;;6.13;;
50281;SDS011;36176;51.506;10.272;2022-08-24T03:32:14;8.33;;;7.80;;
50281;SDS011;36176;51.506;10.272;2022-08-24T03:34:42;7.30;;;6.67;;
50281;SDS011;36176;51.506;10.272;2022-08-24T03:37:18;10.37;;;9.47;;
50281;SDS011;36176;51.506;10.272;2022-08-24T03:39:46;8.67;;;8.00;;
50281;SDS011;36176;51.506;10.272;2022-08-24T03:42:14;11.33;;;10.57;;
50281;SDS011;36176;51.506;10.272;2022-08-24T03:44:58;8.80;;;8.10;;
50281;SDS011;36176;51.506;10.272;2022-08-24T03:47:25;6.93;;;6.33;;
50281;SDS011;36176;51.506;10.272;2022-08-24T03:49:56;9.60;;;8.77;;
50281;SDS011;36176;51.506;10.272;2022-08-24T03:52:24;9.27;;;8.67;;
50281;SDS011;36176;51.506;10.272;2022-08-24T03:54:55;7.80;;;7.30;;
50281;SDS011;36176;51.506;10.272;2022-08-24T03:57:23;9.43;;;8.77;;
50281;SDS011;36176;51.506;10.272;2022-08-24T03:59:50;8.23;;;7.60;;
50281;SDS011;36176;51.506;10.272;2022-08-24T04:02:18;8.97;;;8.27;;
50281;SDS011;36176;51.506;10.272;2022-08-24T04:04:48;9.33;;;8.73;;
50281;SDS011;36176;51.506;10.272;2022-08-24T04:07:16;5.33;;;4.83;;
50281;SDS011;36176;51.506;10.272;2022-08-24T04:09:43;6.83;;;6.27;;
50281;SDS011;36176;51.506;10.272;2022-08-24T04:12:11;7.67;;;7.10;;
50281;SDS011;36176;51.506;10.272;2022-08-24T04:14:50;5.93;;;5.43;;
50281;SDS011;36176;51.506;10.272;2022-08-24T04:17:38;5.27;;;4.83;;
50281;SDS011;36176;51.506;10.272;2022-08-24T04:20:29;7.67;;;7.07;;
50281;SDS011;36176;51.506;10.272;2022-08-24T04:22:56;10.77;;;9.90;;
50281;SDS011;36176;51.506;10.272;2022-08-24T04:26:01;8.13;;;7.53;;
50281;SDS011;36176;51.506;10.272;2022-08-24T04:28:20;8.10;;;7.43;;
50281;SDS011;36176;51.506;10.272;2022-08-24T04:30:49;9.33;;;8.63;;
50281;SDS011;36176;51.506;10.272;2022-08-24T04:33:20;14.07;;;13.27;;
50281;SDS011;36176;51.506;10.272;2022-08-24T04:35:48;10.87;;;9.87;;
50281;SDS011;36176;51.506;10.272;2022-08-24T04:38:18;9.03;;;8.17;;
50281;SDS011;36176;51.506;10.272;2022-08-24T04:41:03;9.57;;;8.90;;
50281;SDS011;36176;51.506;10.272;2022-08-24T04:44:53;12.80;;;11.70;;
50281;SDS011;36176;51.506;10.272;2022-08-24T05:05:14;8.03;;;7.40;;
50281;SDS011;36176;51.506;10.272;2022-08-24T05:07:42;5.17;;;4.67;;
50281;SDS011;36176;51.506;10.272;2022-08-24T05:10:10;6.77;;;6.27;;
50281;SDS011;36176;51.506;10.272;2022-08-24T05:13:06;8.23;;;7.33;;
50281;SDS011;36176;51.506;10.272;2022-08-24T05:15:47;5.57;;;5.17;;
50281;SDS011;36176;51.506;10.272;2022-08-24T05:18:56;4.40;;;4.10;;
50281;SDS011;36176;51.506;10.272;2022-08-24T05:49:51;4.40;;;4.00;;
50281;SDS011;36176;51.506;10.272;2022-08-24T05:52:22;3.88;;;3.58;;
50281;SDS011;36176;51.506;10.272;2022-08-24T05:54:55;6.75;;;3.88;;
50281;SDS011;36176;51.506;10.272;2022-08-24T05:57:25;5.40;;;3.97;;
50281;SDS011;36176;51.506;10.272;2022-08-24T05:59:57;7.00;;;4.35;;
50281;SDS011;36176;51.506;10.272;2022-08-24T06:02:31;7.15;;;4.15;;
50281;SDS011;36176;51.506;10.272;2022-08-24T06:04:58;6.05;;;4.75;;
50281;SDS011;36176;51.506;10.272;2022-08-24T06:07:28;6.28;;;4.00;;
50281;SDS011;36176;51.506;10.272;2022-08-24T06:09:55;6.53;;;4.68;;
50281;SDS011;36176;51.506;10.272;2022-08-24T06:12:43;5.82;;;5.22;;
50281;SDS011;36176;51.506;10.272;2022-08-24T06:15:11;4.88;;;3.80;;
50281;SDS011;36176;51.506;10.272;2022-08-24T06:17:39;5.38;;;4.03;;
50281;SDS011;36176;51.506;10.272;2022-08-24T06:20:06;6.15;;;5.18;;
50281;SDS011;36176;51.506;10.272;2022-08-24T06:22:34;5.03;;;3.33;;
50281;SDS011;36176;51.506;10.272;2022-08-24T06:25:01;5.25;;;3.88;;
50281;SDS011;36176;51.506;10.272;2022-08-24T06:27:47;6.13;;;3.47;;
50281;SDS011;36176;51.506;10.272;2022-08-24T06:30:14;8.15;;;3.80;;
50281;SDS011;36176;51.506;10.272;2022-08-24T06:32:42;4.70;;;4.30;;
50281;SDS011;36176;51.506;10.272;2022-08-24T06:35:09;8.00;;;6.90;;
50281;SDS011;36176;51.506;10.272;2022-08-24T06:37:55;4.28;;;3.67;;
50281;SDS011;36176;51.506;10.272;2022-08-24T06:40:24;10.10;;;9.32;;
50281;SDS011;36176;51.506;10.272;2022-08-24T06:42:52;10.38;;;8.88;;
50281;SDS011;36176;51.506;10.272;2022-08-24T06:45:39;11.18;;;10.45;;
50281;SDS011;36176;51.506;10.272;2022-08-24T06:48:10;5.63;;;3.67;;
50281;SDS011;36176;51.506;10.272;2022-08-24T06:50:38;3.60;;;2.97;;
50281;SDS011;36176;51.506;10.272;2022-08-24T06:53:06;5.32;;;3.40;;
50281;SDS011;36176;51.506;10.272;2022-08-24T06:55:34;3.85;;;3.60;;
50281;SDS011;36176;51.506;10.272;2022-08-24T06:58:01;7.43;;;6.68;;
50281;SDS011;36176;51.506;10.272;2022-08-24T07:00:29;5.63;;;4.60;;
50281;SDS011;36176;51.506;10.272;2022-08-24T07:02:56;8.68;;;8.05;;
50281;SDS011;36176;51.506;10.272;2022-08-24T07:05:25;7.18;;;3.20;;
50281;SDS011;36176;51.506;10.272;2022-08-24T07:07:53;10.00;;;9.20;;
50281;SDS011;36176;51.506;10.272;2022-08-24T07:10:20;5.53;;;2.90;;
50281;SDS011;36176;51.506;10.272;2022-08-24T07:12:51;3.35;;;2.75;;
50281;SDS011;36176;51.506;10.272;2022-08-24T07:15:18;5.10;;;2.65;;
50281;SDS011;36176;51.506;10.272;2022-08-24T07:17:45;5.22;;;4.47;;
50281;SDS011;36176;51.506;10.272;2022-08-24T07:20:31;4.38;;;3.70;;
50281;SDS011;36176;51.506;10.272;2022-08-24T07:22:58;4.68;;;3.08;;
50281;SDS011;36176;51.506;10.272;2022-08-24T07:25:28;4.32;;;2.13;;
50281;SDS011;36176;51.506;10.272;2022-08-24T07:27:58;4.47;;;3.22;;
50281;SDS011;36176;51.506;10.272;2022-08-24T07:30:26;3.97;;;3.58;;
50281;SDS011;36176;51.506;10.272;2022-08-24T07:32:54;2.88;;;1.92;;
50281;SDS011;36176;51.506;10.272;2022-08-24T07:35:23;7.03;;;3.38;;
50281;SDS011;36176;51.506;10.272;2022-08-24T07:37:53;4.32;;;3.92;;
50281;SDS011;36176;51.506;10.272;2022-08-24T07:40:22;4.05;;;2.13;;
50281;SDS011;36176;51.506;10.272;2022-08-24T07:42:50;9.75;;;2.20;;
50281;SDS011;36176;51.506;10.272;2022-08-24T07:45:19;5.95;;;2.38;;
50281;SDS011;36176;51.506;10.272;2022-08-24T07:47:48;7.90;;;2.08;;
50281;SDS011;36176;51.506;10.272;2022-08-24T07:50:28;4.55;;;2.00;;
50281;SDS011;36176;51.506;10.272;2022-08-24T07:52:56;4.28;;;2.03;;
50281;SDS011;36176;51.506;10.272;2022-08-24T07:55:24;7.43;;;3.97;;
50281;SDS011;36176;51.506;10.272;2022-08-24T07:57:51;8.27;;;2.10;;
50281;SDS011;36176;51.506;10.272;2022-08-24T08:00:19;11.40;;;2.40;;
50281;SDS011;36176;51.506;10.272;2022-08-24T08:02:47;11.35;;;4.40;;
50281;SDS011;36176;51.506;10.272;2022-08-24T08:05:17;8.90;;;2.42;;
50281;SDS011;36176;51.506;10.272;2022-08-24T08:07:47;4.90;;;3.38;;
50281;SDS011;36176;51.506;10.272;2022-08-24T08:10:18;6.32;;;3.03;;
50281;SDS011;36176;51.506;10.272;2022-08-24T08:12:45;7.00;;;6.28;;
50281;SDS011;36176;51.506;10.272;2022-08-24T08:15:12;4.72;;;2.10;;
50281;SDS011;36176;51.506;10.272;2022-08-24T08:17:39;8.63;;;2.20;;
50281;SDS011;36176;51.506;10.272;2022-08-24T08:20:25;7.13;;;3.95;;
50281;SDS011;36176;51.506;10.272;2022-08-24T08:22:52;8.05;;;2.33;;
50281;SDS011;36176;51.506;10.272;2022-08-24T08:25:38;6.75;;;2.40;;
50281;SDS011;36176;51.506;10.272;2022-08-24T08:28:13;6.78;;;2.50;;
50281;SDS011;36176;51.506;10.272;2022-08-24T08:30:51;14.43;;;2.40;;
50281;SDS011;36176;51.506;10.272;2022-08-24T08:33:19;14.48;;;2.47;;
50281;SDS011;36176;51.506;10.272;2022-08-24T08:35:47;13.70;;;2.80;;
50281;SDS011;36176;51.506;10.272;2022-08-24T08:38:17;10.20;;;2.22;;
50281;SDS011;36176;51.506;10.272;2022-08-24T08:46:12;6.25;;;1.70;;
50281;SDS011;36176;51.506;10.272;2022-08-24T08:56:53;9.75;;;2.33;;
50281;SDS011;36176;51.506;10.272;2022-08-24T09:10:43;7.18;;;1.95;;
50281;SDS011;36176;51.506;10.272;2022-08-24T09:18:58;11.13;;;2.50;;
50281;SDS011;36176;51.506;10.272;2022-08-24T09:41:26;6.10;;;1.63;;
50281;SDS011;36176;51.506;10.272;2022-08-24T09:52:27;3.72;;;1.60;;
50281;SDS011;36176;51.506;10.272;2022-08-24T10:01:02;7.70;;;1.77;;
50281;SDS011;36176;51.506;10.272;2022-08-24T10:06:56;6.57;;;1.50;;
50281;SDS011;36176;51.506;10.272;2022-08-24T10:15:08;8.07;;;1.83;;
50281;SDS011;36176;51.506;10.272;2022-08-24T10:24:05;5.13;;;1.70;;
50281;SDS011;36176;51.506;10.272;2022-08-24T10:40:21;6.15;;;1.83;;
50281;SDS011;36176;51.506;10.272;2022-08-24T10:57:55;4.88;;;1.77;;
50281;SDS011;36176;51.506;10.272;2022-08-24T11:00:28;5.97;;;1.90;;
50281;SDS011;36176;51.506;10.272;2022-08-24T11:03:10;3.28;;;1.83;;
50281;SDS011;36176;51.506;10.272;2022-08-24T11:05:55;3.60;;;1.77;;
50281;SDS011;36176;51.506;10.272;2022-08-24T11:08:50;7.75;;;1.90;;
50281;SDS011;36176;51.506;10.272;2022-08-24T11:11:24;4.43;;;1.67;;
50281;SDS011;36176;51.506;10.272;2022-08-24T11:13:58;3.63;;;1.63;;
50281;SDS011;36176;51.506;10.272;2022-08-24T11:16:44;2.08;;;1.50;;
50281;SDS011;36176;51.506;10.272;2022-08-24T11:19:28;2.00;;;1.50;;
50281;SDS011;36176;51.506;10.272;2022-08-24T11:21:58;2.03;;;1.38;;
50281;SDS011;36176;51.506;10.272;2022-08-24T11:24:37;3.65;;;2.20;;
50281;SDS011;36176;51.506;10.272;2022-08-24T11:35:12;6.82;;;1.40;;
50281;SDS011;36176;51.506;10.272;2022-08-24T11:37:47;3.47;;;2.28;;
50281;SDS011;36176;51.506;10.272;2022-08-24T11:40:18;11.65;;;1.52;;
50281;SDS011;36176;51.506;10.272;2022-08-24T11:46:00;3.03;;;1.58;;
50281;SDS011;36176;51.506;10.272;2022-08-24T11:51:12;6.00;;;1.63;;
50281;SDS011;36176;51.506;10.272;2022-08-24T11:56:35;5.40;;;1.50;;
50281;SDS011;36176;51.506;10.272;2022-08-24T12:07:21;10.68;;;3.78;;
50281;SDS011;36176;51.506;10.272;2022-08-24T12:15:17;2.75;;;1.80;;
50281;SDS011;36176;51.506;10.272;2022-08-24T12:18:00;2.70;;;1.58;;
50281;SDS011;36176;51.506;10.272;2022-08-24T12:20:38;5.72;;;1.58;;
50281;SDS011;36176;51.506;10.272;2022-08-24T12:23:16;3.80;;;1.52;;
50281;SDS011;36176;51.506;10.272;2022-08-24T12:26:07;4.15;;;1.60;;
50281;SDS011;36176;51.506;10.272;2022-08-24T12:28:46;6.45;;;1.70;;
50281;SDS011;36176;51.506;10.272;2022-08-24T12:34:11;5.20;;;2.28;;
50281;SDS011;36176;51.506;10.272;2022-08-24T12:39:44;4.88;;;2.10;;
50281;SDS011;36176;51.506;10.272;2022-08-24T12:59:14;5.53;;;1.70;;
50281;SDS011;36176;51.506;10.272;2022-08-24T13:01:44;3.63;;;1.75;;
50281;SDS011;36176;51.506;10.272;2022-08-24T13:04:30;2.25;;;1.50;;
50281;SDS011;36176;51.506;10.272;2022-08-24T13:09:46;2.90;;;1.70;;
50281;SDS011;36176;51.506;10.272;2022-08-24T13:17:58;3.70;;;2.08;;
50281;SDS011;36176;51.506;10.272;2022-08-24T13:28:59;3.65;;;1.67;;
50281;SDS011;36176;51.506;10.272;2022-08-24T13:47:30;3.20;;;1.80;;
50281;SDS011;36176;51.506;10.272;2022-08-24T13:56:20;2.92;;;2.30;;
50281;SDS011;36176;51.506;10.272;2022-08-24T13:59:10;6.50;;;2.30;;
50281;SDS011;36176;51.506;10.272;2022-08-24T14:01:49;2.47;;;1.83;;
50281;SDS011;36176;51.506;10.272;2022-08-24T14:07:01;2.90;;;1.95;;
50281;SDS011;36176;51.506;10.272;2022-08-24T14:09:43;5.00;;;1.85;;
50281;SDS011;36176;51.506;10.272;2022-08-24T14:40:30;3.42;;;1.85;;
50281;SDS011;36176;51.506;10.272;2022-08-24T14:43:23;3.05;;;2.22;;
50281;SDS011;36176;51.506;10.272;2022-08-24T14:49:19;2.63;;;1.88;;
50281;SDS011;36176;51.506;10.272;2022-08-24T14:51:59;7.65;;;2.15;;
50281;SDS011;36176;51.506;10.272;2022-08-24T15:00:17;6.65;;;2.85;;
50281;SDS011;36176;51.506;10.272;2022-08-24T15:08:03;3.22;;;2.00;;
50281;SDS011;36176;51.506;10.272;2022-08-24T15:10:37;2.85;;;2.00;;
50281;SDS011;36176;51.506;10.272;2022-08-24T15:21:41;2.03;;;1.90;;
50281;SDS011;36176;51.506;10.272;2022-08-24T15:24:26;6.57;;;2.00;;
50281;SDS011;36176;51.506;10.272;2022-08-24T15:27:09;7.00;;;2.58;;
50281;SDS011;36176;51.506;10.272;2022-08-24T15:29:51;4.72;;;4.05;;
50281;SDS011;36176;51.506;10.272;2022-08-24T15:32:24;4.68;;;4.28;;
50281;SDS011;36176;51.506;10.272;2022-08-24T15:35:21;5.85;;;1.95;;
50281;SDS011;36176;51.506;10.272;2022-08-24T15:37:50;4.05;;;1.80;;
50281;SDS011;36176;51.506;10.272;2022-08-24T15:40:23;7.22;;;1.73;;
50281;SDS011;36176;51.506;10.272;2022-08-24T15:42:59;4.88;;;1.70;;
50281;SDS011;36176;51.506;10.272;2022-08-24T15:45:30;6.50;;;1.70;;
50281;SDS011;36176;51.506;10.272;2022-08-24T15:47:59;5.55;;;4.55;;
50281;SDS011;36176;51.506;10.272;2022-08-24T15:50:46;2.00;;;1.60;;
50281;SDS011;36176;51.506;10.272;2022-08-24T15:53:33;2.83;;;2.00;;
50281;SDS011;36176;51.506;10.272;2022-08-24T15:56:38;2.47;;;1.50;;
50281;SDS011;36176;51.506;10.272;2022-08-24T15:59:05;4.80;;;2.50;;
50281;SDS011;36176;51.506;10.272;2022-08-24T16:01:35;3.90;;;1.77;;
50281;SDS011;36176;51.506;10.272;2022-08-24T16:07:13;4.40;;;1.90;;
50281;SDS011;36176;51.506;10.272;2022-08-24T16:09:48;3.35;;;1.70;;
50281;SDS011;36176;51.506;10.272;2022-08-24T16:12:39;6.88;;;1.80;;
50281;SDS011;36176;51.506;10.272;2022-08-24T16:15:07;3.40;;;1.67;;
50281;SDS011;36176;51.506;10.272;2022-08-24T16:17:46;3.55;;;2.45;;
50281;SDS011;36176;51.506;10.272;2022-08-24T16:23:00;3.80;;;1.67;;
50281;SDS011;36176;51.506;10.272;2022-08-24T16:25:37;2.08;;;1.58;;
50281;SDS011;36176;51.506;10.272;2022-08-24T16:28:12;3.08;;;1.80;;
50281;SDS011;36176;51.506;10.272;2022-08-24T16:31:01;3.40;;;1.42;;
50281;SDS011;36176;51.506;10.272;2022-08-24T16:33:35;5.32;;;1.77;;
50281;SDS011;36176;51.506;10.272;2022-08-24T16:36:11;5.05;;;1.80;;
50281;SDS011;36176;51.506;10.272;2022-08-24T16:38:44;2.90;;;1.65;;
50281;SDS011;36176;51.506;10.272;2022-08-24T16:41:15;4.45;;;2.10;;
50281;SDS011;36176;51.506;10.272;2022-08-24T16:43:45;5.25;;;1.92;;
50281;SDS011;36176;51.506;10.272;2022-08-24T16:46:17;2.67;;;2.10;;
50281;SDS011;36176;51.506;10.272;2022-08-24T16:48:47;4.10;;;1.77;;
50281;SDS011;36176;51.506;10.272;2022-08-24T16:51:15;7.13;;;2.00;;
50281;SDS011;36176;51.506;10.272;2022-08-24T16:53:42;6.90;;;1.95;;
50281;SDS011;36176;51.506;10.272;2022-08-24T16:56:23;2.30;;;1.63;;
50281;SDS011;36176;51.506;10.272;2022-08-24T16:58:51;5.25;;;2.00;;
50281;SDS011;36176;51.506;10.272;2022-08-24T17:01:18;7.85;;;2.20;;
50281;SDS011;36176;51.506;10.272;2022-08-24T17:03:46;3.70;;;2.25;;
50281;SDS011;36176;51.506;10.272;2022-08-24T17:06:14;6.68;;;2.13;;
50281;SDS011;36176;51.506;10.272;2022-08-24T17:08:44;6.53;;;1.92;;
50281;SDS011;36176;51.506;10.272;2022-08-24T17:11:13;9.68;;;1.88;;
50281;SDS011;36176;51.506;10.272;2022-08-24T17:13:41;8.23;;;2.83;;
50281;SDS011;36176;51.506;10.272;2022-08-24T17:16:17;9.45;;;3.00;;
50281;SDS011;36176;51.506;10.272;2022-08-24T17:18:46;4.20;;;2.60;;
50281;SDS011;36176;51.506;10.272;2022-08-24T17:21:13;2.30;;;2.00;;
50281;SDS011;36176;51.506;10.272;2022-08-24T17:23:41;4.18;;;2.20;;
50281;SDS011;36176;51.506;10.272;2022-08-24T17:26:10;4.85;;;1.80;;
50281;SDS011;36176;51.506;10.272;2022-08-24T17:28:47;5.93;;;2.60;;
50281;SDS011;36176;51.506;10.272;2022-08-24T17:31:21;13.52;;;2.40;;
50281;SDS011;36176;51.506;10.272;2022-08-24T17:33:50;8.43;;;1.80;;
50281;SDS011;36176;51.506;10.272;2022-08-24T17:36:19;14.18;;;2.25;;
50281;SDS011;36176;51.506;10.272;2022-08-24T17:38:49;9.65;;;1.80;;
50281;SDS011;36176;51.506;10.272;2022-08-24T17:41:22;6.10;;;1.75;;
50281;SDS011;36176;51.506;10.272;2022-08-24T17:43:50;5.78;;;1.80;;
50281;SDS011;36176;51.506;10.272;2022-08-24T17:46:18;5.60;;;2.15;;
50281;SDS011;36176;51.506;10.272;2022-08-24T17:48:46;3.60;;;2.15;;
50281;SDS011;36176;51.506;10.272;2022-08-24T17:51:14;5.70;;;3.05;;
50281;SDS011;36176;51.506;10.272;2022-08-24T17:53:41;4.15;;;2.05;;
50281;SDS011;36176;51.506;10.272;2022-08-24T17:56:29;3.58;;;2.05;;
50281;SDS011;36176;51.506;10.272;2022-08-24T17:59:10;4.38;;;2.50;;
50281;SDS011;36176;51.506;10.272;2022-08-24T18:01:46;2.85;;;1.80;;
50281;SDS011;36176;51.506;10.272;2022-08-24T18:04:13;3.95;;;2.70;;
50281;SDS011;36176;51.506;10.272;2022-08-24T18:06:41;2.20;;;1.98;;
50281;SDS011;36176;51.506;10.272;2022-08-24T18:09:10;4.72;;;2.58;;
50281;SDS011;36176;51.506;10.272;2022-08-24T18:11:43;2.88;;;1.90;;
50281;SDS011;36176;51.506;10.272;2022-08-24T18:14:12;12.10;;;2.08;;
50281;SDS011;36176;51.506;10.272;2022-08-24T18:16:39;29.40;;;2.50;;
50281;SDS011;36176;51.506;10.272;2022-08-24T18:19:07;38.42;;;2.95;;
50281;SDS011;36176;51.506;10.272;2022-08-24T18:21:37;37.53;;;3.60;;
50281;SDS011;36176;51.506;10.272;2022-08-24T18:24:05;35.58;;;2.90;;
50281;SDS011;36176;51.506;10.272;2022-08-24T18:26:33;41.35;;;3.50;;
50281;SDS011;36176;51.506;10.272;2022-08-24T18:29:10;51.83;;;4.15;;
50281;SDS011;36176;51.506;10.272;2022-08-24T18:31:40;44.13;;;4.15;;
50281;SDS011;36176;51.506;10.272;2022-08-24T18:34:08;21.35;;;2.55;;
50281;SDS011;36176;51.506;10.272;2022-08-24T18:36:37;35.40;;;3.53;;
50281;SDS011;36176;51.506;10.272;2022-08-24T18:39:04;26.35;;;3.20;;
50281;SDS011;36176;51.506;10.272;2022-08-24T18:41:33;17.63;;;2.30;;
50281;SDS011;36176;51.506;10.272;2022-08-24T18:44:03;30.88;;;3.42;;
50281;SDS011;36176;51.506;10.272;2022-08-24T18:46:32;16.77;;;2.20;;
50281;SDS011;36176;51.506;10.272;2022-08-24T18:49:00;23.52;;;2.63;;
50281;SDS011;36176;51.506;10.272;2022-08-24T18:51:29;10.77;;;2.30;;
50281;SDS011;36176;51.506;10.272;2022-08-24T18:54:04;7.88;;;2.00;;
50281;SDS011;36176;51.506;10.272;2022-08-24T18:56:42;10.93;;;2.30;;
50281;SDS011;36176;51.506;10.272;2022-08-24T18:59:11;13.13;;;2.60;;
50281;SDS011;36176;51.506;10.272;2022-08-24T19:01:41;15.15;;;2.88;;
50281;SDS011;36176;51.506;10.272;2022-08-24T19:04:30;4.55;;;1.95;;
50281;SDS011;36176;51.506;10.272;2022-08-24T19:06:59;9.95;;;2.38;;
50281;SDS011;36176;51.506;10.272;2022-08-24T19:09:27;13.88;;;2.60;;
50281;SDS011;36176;51.506;10.272;2022-08-24T19:12:00;8.70;;;1.95;;
50281;SDS011;36176;51.506;10.272;2022-08-24T19:14:28;9.05;;;2.30;;
50281;SDS011;36176;51.506;10.272;2022-08-24T19:16:57;6.72;;;2.00;;
50281;SDS011;36176;51.506;10.272;2022-08-24T19:19:27;4.97;;;1.90;;
50281;SDS011;36176;51.506;10.272;2022-08-24T19:21:59;15.75;;;2.40;;
50281;SDS011;36176;51.506;10.272;2022-08-24T19:24:28;6.43;;;2.35;;
50281;SDS011;36176;51.506;10.272;2022-08-24T19:26:58;6.50;;;1.85;;
50281;SDS011;36176;51.506;10.272;2022-08-24T19:29:28;5.78;;;1.88;;
50281;SDS011;36176;51.506;10.272;2022-08-24T19:32:21;3.92;;;1.67;;
50281;SDS011;36176;51.506;10.272;2022-08-24T19:34:58;4.28;;;1.80;;
50281;SDS011;36176;51.506;10.272;2022-08-24T19:37:26;6.10;;;1.98;;
50281;SDS011;36176;51.506;10.272;2022-08-24T19:39:53;3.15;;;2.10;;
50281;SDS011;36176;51.506;10.272;2022-08-24T19:42:22;2.50;;;2.17;;
50281;SDS011;36176;51.506;10.272;2022-08-24T19:44:51;7.75;;;1.77;;
50281;SDS011;36176;51.506;10.272;2022-08-24T19:47:37;4.78;;;2.10;;
50281;SDS011;36176;51.506;10.272;2022-08-24T19:50:06;2.28;;;1.85;;
50281;SDS011;36176;51.506;10.272;2022-08-24T19:52:35;4.93;;;1.67;;
50281;SDS011;36176;51.506;10.272;2022-08-24T19:55:17;9.05;;;2.95;;
50281;SDS011;36176;51.506;10.272;2022-08-24T19:57:49;2.53;;;2.10;;
50281;SDS011;36176;51.506;10.272;2022-08-24T20:02:52;5.40;;;1.75;;
50281;SDS011;36176;51.506;10.272;2022-08-24T20:05:25;3.70;;;2.50;;
50281;SDS011;36176;51.506;10.272;2022-08-24T20:07:54;3.22;;;2.33;;
50281;SDS011;36176;51.506;10.272;2022-08-24T20:10:22;4.55;;;2.08;;
50281;SDS011;36176;51.506;10.272;2022-08-24T20:12:51;4.60;;;2.00;;
50281;SDS011;36176;51.506;10.272;2022-08-24T20:15:21;3.35;;;2.63;;
50281;SDS011;36176;51.506;10.272;2022-08-24T20:17:53;8.60;;;5.55;;
50281;SDS011;36176;51.506;10.272;2022-08-24T20:20:22;4.03;;;2.20;;
50281;SDS011;36176;51.506;10.272;2022-08-24T20:22:50;4.68;;;2.40;;
50281;SDS011;36176;51.506;10.272;2022-08-24T20:25:19;4.03;;;3.08;;
50281;SDS011;36176;51.506;10.272;2022-08-24T20:27:46;3.28;;;2.40;;
50281;SDS011;36176;51.506;10.272;2022-08-24T20:30:26;5.28;;;2.33;;
50281;SDS011;36176;51.506;10.272;2022-08-24T20:32:53;9.82;;;3.58;;
50281;SDS011;36176;51.506;10.272;2022-08-24T20:35:22;7.03;;;4.20;;
50281;SDS011;36176;51.506;10.272;2022-08-24T20:38:08;9.88;;;4.47;;
50281;SDS011;36176;51.506;10.272;2022-08-24T20:40:39;8.25;;;3.13;;